PWSweather.com
Personal Weather Stations
Station Observations
MIGLIARINO
Migliarino, FiscagliaIT 44027

MigliarinoFiscagliaIT 44027

Lat: 44.769682, Lon: 11.93112700000006

Elevation: 3

Station Type: PCE Fws 20

Latest ConditionsUpdated 9:45:04 PM GMT+01:01 Wednesday, Jun 20, 2018
Currently Today's Max Today's Min Today's Average
Temperature 77.0°F25.0°C 89.2°F31.8°C 67.3°F19.6°C 80.1°F26.7°C
Dew Point 63.0°F17.2°C 67.0°F19.4°C 54.3°F12.4°C 58.7°F14.8°C
Winds 1.2 mph SE1.9 kmh SE 6.9 mph -11.1 kmh - - 1.8 mph 2.9 kmh
Wind Gusts 1.2 mph1.9 kmh 12.7 mph20.4 kmh - -
Humidity 62% 75% 32% 51%
Pressure 30.03 in1016.9 mb 30.10 in1019.3 mb 30.00 in1015.9 mb -
Hour Temp Dew Point Humidity Winds Wind Gusts Pressure Precip Precip Rate Daily Precip Total
09:45 PM 77.0°F25.0°C 63.0°F17.2°C 62% 1.2 mph SE1.9 kmh SE 1.2 mph1.9 kmh 30.03 in1016.9 mb - 0.00 in0.0 mm 0.00 in0.0 mm
09:40 PM 77.0°F25.0°C 63.0°F17.2°C 62% 1.2 mph SE1.9 kmh SE 1.2 mph1.9 kmh 30.04 in1017.3 mb - 0.00 in0.0 mm 0.00 in0.0 mm
09:35 PM 77.0°F25.0°C 62.5°F16.9°C 61% 1.2 mph SE1.9 kmh SE 1.2 mph1.9 kmh 30.04 in1017.3 mb - 0.00 in0.0 mm 0.00 in0.0 mm
09:30 PM 77.4°F25.2°C 62.9°F17.2°C 61% 1.2 mph SE1.9 kmh SE 1.2 mph1.9 kmh 30.03 in1016.9 mb - 0.00 in0.0 mm 0.00 in0.0 mm
09:25 PM 77.5°F25.3°C 63.0°F17.2°C 61% 1.2 mph E1.9 kmh E 2.3 mph3.7 kmh 30.04 in1017.3 mb - 0.00 in0.0 mm 0.00 in0.0 mm
09:20 PM 77.5°F25.3°C 63.0°F17.2°C 61% 1.2 mph SE1.9 kmh SE 2.3 mph3.7 kmh 30.04 in1017.3 mb - 0.00 in0.0 mm 0.00 in0.0 mm
09:15 PM 77.5°F25.3°C 63.0°F17.2°C 61% 1.2 mph SE1.9 kmh SE 1.2 mph1.9 kmh 30.03 in1016.9 mb - 0.00 in0.0 mm 0.00 in0.0 mm
09:10 PM 77.4°F25.2°C 62.9°F17.2°C 61% 1.2 mph SE1.9 kmh SE 1.2 mph1.9 kmh 30.04 in1017.3 mb - 0.00 in0.0 mm 0.00 in0.0 mm
09:00 PM 77.5°F25.3°C 62.6°F17.0°C 60% Calm Calm 1.2 mph1.9 kmh 30.03 in1016.9 mb - 0.00 in0.0 mm 0.00 in0.0 mm
08:55 PM 77.5°F25.3°C 62.6°F17.0°C 60% Calm Calm 1.2 mph1.9 kmh 30.03 in1016.9 mb - 0.00 in0.0 mm 0.00 in0.0 mm
08:50 PM 77.7°F25.4°C 62.7°F17.1°C 60% Calm Calm 1.2 mph1.9 kmh 30.03 in1016.9 mb - 0.00 in0.0 mm 0.00 in0.0 mm
08:40 PM 78.1°F25.6°C 62.1°F16.7°C 58% 1.2 mph NE1.9 kmh NE 2.3 mph3.7 kmh 30.03 in1016.9 mb - 0.00 in0.0 mm 0.00 in0.0 mm
08:35 PM 78.4°F25.8°C 61.9°F16.6°C 57% Calm Calm 1.2 mph1.9 kmh 30.03 in1016.9 mb - 0.00 in0.0 mm 0.00 in0.0 mm
08:30 PM 78.6°F25.9°C 62.1°F16.7°C 57% 1.2 mph SE1.9 kmh SE 2.3 mph3.7 kmh 30.02 in1016.6 mb - 0.00 in0.0 mm 0.00 in0.0 mm
08:25 PM 79.0°F26.1°C 61.4°F16.3°C 55% 1.2 mph NE1.9 kmh NE 2.3 mph3.7 kmh 30.03 in1016.9 mb - 0.00 in0.0 mm 0.00 in0.0 mm
08:20 PM 79.2°F26.2°C 61.1°F16.2°C 54% 1.2 mph S1.9 kmh S 1.2 mph1.9 kmh 30.02 in1016.6 mb - 0.00 in0.0 mm 0.00 in0.0 mm
08:15 PM 79.7°F26.5°C 61.1°F16.2°C 53% 1.2 mph E1.9 kmh E 3.5 mph5.6 kmh 30.02 in1016.6 mb - 0.00 in0.0 mm 0.00 in0.0 mm
08:10 PM 79.9°F26.6°C 60.7°F15.9°C 52% 1.2 mph S1.9 kmh S 2.3 mph3.7 kmh 30.02 in1016.6 mb - 0.00 in0.0 mm 0.00 in0.0 mm
08:00 PM 80.4°F26.9°C 60.6°F15.9°C 51% 1.2 mph E1.9 kmh E 3.5 mph5.6 kmh 30.02 in1016.6 mb - 0.00 in0.0 mm 0.00 in0.0 mm
07:55 PM 80.6°F27.0°C 59.7°F15.4°C 49% 1.2 mph E1.9 kmh E 2.3 mph3.7 kmh 30.01 in1016.3 mb - 0.00 in0.0 mm 0.00 in0.0 mm
07:50 PM 80.8°F27.1°C 59.3°F15.2°C 48% Calm Calm 3.5 mph5.6 kmh 30.02 in1016.6 mb - 0.00 in0.0 mm 0.00 in0.0 mm
07:45 PM 80.8°F27.1°C 59.3°F15.2°C 48% 1.2 mph SE1.9 kmh SE 3.5 mph5.6 kmh 30.01 in1016.3 mb - 0.00 in0.0 mm 0.00 in0.0 mm
07:40 PM 80.8°F27.1°C 59.3°F15.2°C 48% 1.2 mph NE1.9 kmh NE 2.3 mph3.7 kmh 30.02 in1016.6 mb - 0.00 in0.0 mm 0.00 in0.0 mm
07:35 PM 80.8°F27.1°C 59.3°F15.2°C 48% 2.3 mph E3.7 kmh E 3.5 mph5.6 kmh 30.02 in1016.6 mb - 0.00 in0.0 mm 0.00 in0.0 mm
07:30 PM 80.8°F27.1°C 58.7°F14.8°C 47% 2.3 mph NE3.7 kmh NE 3.5 mph5.6 kmh 30.01 in1016.3 mb - 0.00 in0.0 mm 0.00 in0.0 mm
07:25 PM 80.8°F27.1°C 58.1°F14.5°C 46% 2.3 mph E3.7 kmh E 3.5 mph5.6 kmh 30.01 in1016.3 mb - 0.00 in0.0 mm 0.00 in0.0 mm
07:20 PM 80.8°F27.1°C 58.1°F14.5°C 46% 2.3 mph NE3.7 kmh NE 3.5 mph5.6 kmh 30.02 in1016.6 mb - 0.00 in0.0 mm 0.00 in0.0 mm
07:15 PM 81.0°F27.2°C 57.6°F14.2°C 45% 1.2 mph NE1.9 kmh NE 2.3 mph3.7 kmh 30.01 in1016.3 mb - 0.00 in0.0 mm 0.00 in0.0 mm
07:10 PM 81.1°F27.3°C 57.1°F13.9°C 44% 1.2 mph ENE1.9 kmh ENE 2.3 mph3.7 kmh 30.01 in1016.3 mb - 0.00 in0.0 mm 0.00 in0.0 mm
07:00 PM 82.4°F28.0°C 57.7°F14.3°C 43% 1.2 mph E1.9 kmh E 3.5 mph5.6 kmh 30.01 in1016.3 mb - 0.00 in0.0 mm 0.00 in0.0 mm
06:55 PM 82.4°F28.0°C 57.0°F13.9°C 42% 3.5 mph SE5.6 kmh SE 3.5 mph5.6 kmh 30.01 in1016.3 mb - 0.00 in0.0 mm 0.00 in0.0 mm
06:50 PM 82.6°F28.1°C 57.2°F14.0°C 42% 2.3 mph NE3.7 kmh NE 5.8 mph9.3 kmh 30.01 in1016.3 mb - 0.00 in0.0 mm 0.00 in0.0 mm
06:45 PM 82.9°F28.3°C 57.5°F14.2°C 42% 2.3 mph S3.7 kmh S 3.5 mph5.6 kmh 30.02 in1016.6 mb - 0.00 in0.0 mm 0.00 in0.0 mm
06:40 PM 83.1°F28.4°C 57.7°F14.3°C 42% 3.5 mph NE5.6 kmh NE 4.6 mph7.4 kmh 30.02 in1016.6 mb - 0.00 in0.0 mm 0.00 in0.0 mm
06:35 PM 83.5°F28.6°C 57.3°F14.1°C 41% 2.3 mph NE3.7 kmh NE 4.6 mph7.4 kmh 30.01 in1016.3 mb - 0.00 in0.0 mm 0.00 in0.0 mm
06:30 PM 83.5°F28.6°C 57.3°F14.1°C 41% 1.2 mph ESE1.9 kmh ESE 3.5 mph5.6 kmh 30.01 in1016.3 mb - 0.00 in0.0 mm 0.00 in0.0 mm
06:25 PM 84.6°F29.2°C 57.6°F14.2°C 40% 2.3 mph N3.7 kmh N 4.6 mph7.4 kmh 30.01 in1016.3 mb - 0.00 in0.0 mm 0.00 in0.0 mm
06:20 PM 84.9°F29.4°C 57.2°F14.0°C 39% 1.2 mph NE1.9 kmh NE 3.5 mph5.6 kmh 30.01 in1016.3 mb - 0.00 in0.0 mm 0.00 in0.0 mm
06:15 PM 85.3°F29.6°C 56.8°F13.8°C 38% 2.3 mph E3.7 kmh E 5.8 mph9.3 kmh 30.00 in1015.9 mb - 0.00 in0.0 mm 0.00 in0.0 mm
06:10 PM 85.8°F29.9°C 56.5°F13.6°C 37% 2.3 mph ENE3.7 kmh ENE 5.8 mph9.3 kmh 30.00 in1015.9 mb - 0.00 in0.0 mm 0.00 in0.0 mm
06:00 PM 86.3°F30.2°C 55.5°F13.1°C 35% 1.2 mph NE1.9 kmh NE 2.3 mph3.7 kmh 30.01 in1016.3 mb - 0.00 in0.0 mm 0.00 in0.0 mm
05:55 PM 86.2°F30.1°C 55.3°F12.9°C 35% 2.3 mph W3.7 kmh W 4.6 mph7.4 kmh 30.01 in1016.3 mb - 0.00 in0.0 mm 0.00 in0.0 mm
05:50 PM 86.6°F30.3°C 55.6°F13.1°C 35% 2.3 mph E3.7 kmh E 4.6 mph7.4 kmh 30.01 in1016.3 mb - 0.00 in0.0 mm 0.00 in0.0 mm
05:45 PM 86.9°F30.5°C 56.0°F13.3°C 35% 2.3 mph E3.7 kmh E 5.8 mph9.3 kmh 30.01 in1016.3 mb - 0.00 in0.0 mm 0.00 in0.0 mm
05:40 PM 86.9°F30.5°C 55.9°F13.3°C 35% 2.3 mph ENE3.7 kmh ENE 3.5 mph5.6 kmh 30.02 in1016.6 mb - 0.00 in0.0 mm 0.00 in0.0 mm
05:35 PM 86.7°F30.4°C 55.8°F13.2°C 35% 2.3 mph SW3.7 kmh SW 4.6 mph7.4 kmh 30.01 in1016.3 mb - 0.00 in0.0 mm 0.00 in0.0 mm
05:30 PM 86.7°F30.4°C 55.0°F12.8°C 34% 1.2 mph WSW1.9 kmh WSW 4.6 mph7.4 kmh 30.02 in1016.6 mb - 0.00 in0.0 mm 0.00 in0.0 mm
05:25 PM 87.1°F30.6°C 55.3°F12.9°C 34% 2.3 mph NNE3.7 kmh NNE 3.5 mph5.6 kmh 30.01 in1016.3 mb - 0.00 in0.0 mm 0.00 in0.0 mm
05:20 PM 86.5°F30.3°C 55.6°F13.1°C 35% 1.2 mph E1.9 kmh E 2.3 mph3.7 kmh 30.02 in1016.6 mb - 0.00 in0.0 mm 0.00 in0.0 mm
05:15 PM 86.6°F30.3°C 55.6°F13.1°C 35% 4.6 mph N7.4 kmh N 5.8 mph9.3 kmh 30.02 in1016.6 mb - 0.00 in0.0 mm 0.00 in0.0 mm
05:10 PM 86.7°F30.4°C 55.8°F13.2°C 35% 2.3 mph E3.7 kmh E 5.8 mph9.3 kmh 30.02 in1016.6 mb - 0.00 in0.0 mm 0.00 in0.0 mm
05:00 PM 87.3°F30.7°C 56.3°F13.5°C 35% 2.3 mph E3.7 kmh E 4.6 mph7.4 kmh 30.02 in1016.6 mb - 0.00 in0.0 mm 0.00 in0.0 mm
04:55 PM 87.3°F30.7°C 56.3°F13.5°C 35% 1.2 mph S1.9 kmh S 3.5 mph5.6 kmh 30.02 in1016.6 mb - 0.00 in0.0 mm 0.00 in0.0 mm
04:50 PM 87.3°F30.7°C 56.3°F13.5°C 35% 2.3 mph NW3.7 kmh NW 5.8 mph9.3 kmh 30.02 in1016.6 mb - 0.00 in0.0 mm 0.00 in0.0 mm
04:45 PM 87.2°F30.7°C 56.3°F13.5°C 35% 2.3 mph 3.7 kmh 6.9 mph11.1 kmh 30.03 in1016.9 mb - 0.00 in0.0 mm 0.00 in0.0 mm
04:40 PM 87.1°F30.6°C 56.9°F13.8°C 36% 3.5 mph NE5.6 kmh NE 8.1 mph13.0 kmh 30.03 in1016.9 mb - 0.00 in0.0 mm 0.00 in0.0 mm
04:35 PM 86.9°F30.5°C 56.0°F13.3°C 35% 3.5 mph N5.6 kmh N 6.9 mph11.1 kmh 30.02 in1016.6 mb - 0.00 in0.0 mm 0.00 in0.0 mm
04:30 PM 87.5°F30.8°C 55.6°F13.1°C 34% 2.3 mph ENE3.7 kmh ENE 3.5 mph5.6 kmh 30.03 in1016.9 mb - 0.00 in0.0 mm 0.00 in0.0 mm
04:25 PM 87.8°F31.0°C 55.9°F13.3°C 34% 2.3 mph SSE3.7 kmh SSE 6.9 mph11.1 kmh 30.03 in1016.9 mb - 0.00 in0.0 mm 0.00 in0.0 mm
04:20 PM 87.4°F30.8°C 56.4°F13.6°C 35% 2.3 mph SE3.7 kmh SE 3.5 mph5.6 kmh 30.03 in1016.9 mb - 0.00 in0.0 mm 0.00 in0.0 mm
04:15 PM 87.5°F30.8°C 56.5°F13.6°C 35% 3.5 mph WNW5.6 kmh WNW 5.8 mph9.3 kmh 30.04 in1017.3 mb - 0.00 in0.0 mm 0.00 in0.0 mm
04:10 PM 88.0°F31.1°C 55.3°F12.9°C 33% 2.3 mph NE3.7 kmh NE 3.5 mph5.6 kmh 30.04 in1017.3 mb - 0.00 in0.0 mm 0.00 in0.0 mm
04:00 PM 88.2°F31.2°C 54.6°F12.6°C 32% 2.3 mph NW3.7 kmh NW 8.1 mph13.0 kmh 30.04 in1017.3 mb - 0.00 in0.0 mm 0.00 in0.0 mm
03:55 PM 88.3°F31.3°C 54.7°F12.6°C 32% 3.5 mph N5.6 kmh N 4.6 mph7.4 kmh 30.04 in1017.3 mb - 0.00 in0.0 mm 0.00 in0.0 mm
03:50 PM 88.3°F31.3°C 55.6°F13.1°C 33% 2.3 mph S3.7 kmh S 4.6 mph7.4 kmh 30.04 in1017.3 mb - 0.00 in0.0 mm 0.00 in0.0 mm
03:45 PM 88.1°F31.2°C 55.4°F13.0°C 33% 2.3 mph E3.7 kmh E 4.6 mph7.4 kmh 30.04 in1017.3 mb - 0.00 in0.0 mm 0.00 in0.0 mm
03:40 PM 87.8°F31.0°C 55.1°F12.8°C 33% 1.2 mph NE1.9 kmh NE 5.8 mph9.3 kmh 30.04 in1017.3 mb - 0.00 in0.0 mm 0.00 in0.0 mm
03:35 PM 87.8°F31.0°C 55.1°F12.8°C 33% 1.2 mph N1.9 kmh N 3.5 mph5.6 kmh 30.04 in1017.3 mb - 0.00 in0.0 mm 0.00 in0.0 mm
03:30 PM 87.8°F31.0°C 55.1°F12.8°C 33% 3.5 mph E5.6 kmh E 11.5 mph18.5 kmh 30.05 in1017.6 mb - 0.00 in0.0 mm 0.00 in0.0 mm
03:25 PM 87.8°F31.0°C 54.3°F12.4°C 32% 1.2 mph NW1.9 kmh NW 5.8 mph9.3 kmh 30.04 in1017.3 mb - 0.00 in0.0 mm 0.00 in0.0 mm
03:20 PM 87.5°F30.8°C 55.6°F13.1°C 34% 2.3 mph E3.7 kmh E 8.1 mph13.0 kmh 30.04 in1017.3 mb - 0.00 in0.0 mm 0.00 in0.0 mm
03:15 PM 87.8°F31.0°C 55.1°F12.8°C 33% 2.3 mph NE3.7 kmh NE 5.8 mph9.3 kmh 30.05 in1017.6 mb - 0.00 in0.0 mm 0.00 in0.0 mm
03:10 PM 88.9°F31.6°C 56.1°F13.4°C 33% 3.5 mph E5.6 kmh E 6.9 mph11.1 kmh 30.05 in1017.6 mb - 0.00 in0.0 mm 0.00 in0.0 mm
03:00 PM 88.9°F31.6°C 55.2°F12.9°C 32% 2.3 mph SE3.7 kmh SE 4.6 mph7.4 kmh 30.05 in1017.6 mb - 0.00 in0.0 mm 0.00 in0.0 mm
02:55 PM 88.9°F31.6°C 56.1°F13.4°C 33% 2.3 mph N3.7 kmh N 8.1 mph13.0 kmh 30.05 in1017.6 mb - 0.00 in0.0 mm 0.00 in0.0 mm
02:50 PM 88.9°F31.6°C 56.1°F13.4°C 33% 4.6 mph N7.4 kmh N 5.8 mph9.3 kmh 30.05 in1017.6 mb - 0.00 in0.0 mm 0.00 in0.0 mm
02:40 PM 87.8°F31.0°C 55.9°F13.3°C 34% 6.9 mph N11.1 kmh N 9.2 mph14.8 kmh 30.06 in1017.9 mb - 0.00 in0.0 mm 0.00 in0.0 mm
02:35 PM 87.8°F31.0°C 55.9°F13.3°C 34% 3.5 mph NE5.6 kmh NE 5.8 mph9.3 kmh 30.06 in1017.9 mb - 0.00 in0.0 mm 0.00 in0.0 mm
02:30 PM 88.0°F31.1°C 55.3°F12.9°C 33% 3.5 mph E5.6 kmh E 5.8 mph9.3 kmh 30.06 in1017.9 mb - 0.00 in0.0 mm 0.00 in0.0 mm
02:25 PM 88.0°F31.1°C 55.3°F12.9°C 33% 6.9 mph 11.1 kmh 10.4 mph16.7 kmh 30.06 in1017.9 mb - 0.00 in0.0 mm 0.00 in0.0 mm
02:20 PM 87.8°F31.0°C 55.9°F13.3°C 34% 2.3 mph SE3.7 kmh SE 3.5 mph5.6 kmh 30.06 in1017.9 mb - 0.00 in0.0 mm 0.00 in0.0 mm
02:15 PM 88.0°F31.1°C 55.3°F12.9°C 33% 3.5 mph E5.6 kmh E 6.9 mph11.1 kmh 30.06 in1017.9 mb - 0.00 in0.0 mm 0.00 in0.0 mm
02:10 PM 88.2°F31.2°C 55.4°F13.0°C 33% 2.3 mph NW3.7 kmh NW 4.6 mph7.4 kmh 30.06 in1017.9 mb - 0.00 in0.0 mm 0.00 in0.0 mm
02:00 PM 88.5°F31.4°C 55.7°F13.2°C 33% 3.5 mph N5.6 kmh N 5.8 mph9.3 kmh 30.06 in1017.9 mb - 0.00 in0.0 mm 0.00 in0.0 mm
01:55 PM 88.2°F31.2°C 55.4°F13.0°C 33% 3.5 mph W5.6 kmh W 6.9 mph11.1 kmh 30.06 in1017.9 mb - 0.00 in0.0 mm 0.00 in0.0 mm
01:50 PM 88.2°F31.2°C 56.3°F13.5°C 34% 1.2 mph SE1.9 kmh SE 4.6 mph7.4 kmh 30.06 in1017.9 mb - 0.00 in0.0 mm 0.00 in0.0 mm
01:45 PM 88.2°F31.2°C 55.4°F13.0°C 33% 3.5 mph NE5.6 kmh NE 5.8 mph9.3 kmh 30.07 in1018.3 mb - 0.00 in0.0 mm 0.00 in0.0 mm
01:40 PM 88.1°F31.2°C 56.2°F13.4°C 34% 1.2 mph S1.9 kmh S 3.5 mph5.6 kmh 30.07 in1018.3 mb - 0.00 in0.0 mm 0.00 in0.0 mm
01:35 PM 87.4°F30.8°C 56.4°F13.6°C 35% 2.3 mph 3.7 kmh 3.5 mph5.6 kmh 30.07 in1018.3 mb - 0.00 in0.0 mm 0.00 in0.0 mm
01:30 PM 88.0°F31.1°C 56.1°F13.4°C 34% 4.6 mph S7.4 kmh S 8.1 mph13.0 kmh 30.07 in1018.3 mb - 0.00 in0.0 mm 0.00 in0.0 mm
01:25 PM 88.2°F31.2°C 56.3°F13.5°C 34% 2.3 mph NE3.7 kmh NE 6.9 mph11.1 kmh 30.07 in1018.3 mb - 0.00 in0.0 mm 0.00 in0.0 mm
01:20 PM 88.5°F31.4°C 55.7°F13.2°C 33% 4.6 mph S7.4 kmh S 6.9 mph11.1 kmh 30.07 in1018.3 mb - 0.00 in0.0 mm 0.00 in0.0 mm
01:15 PM 88.5°F31.4°C 56.6°F13.7°C 34% 5.8 mph NNE9.3 kmh NNE 10.4 mph16.7 kmh 30.07 in1018.3 mb - 0.00 in0.0 mm 0.00 in0.0 mm
01:10 PM 88.7°F31.5°C 55.9°F13.3°C 33% 3.5 mph SSE5.6 kmh SSE 4.6 mph7.4 kmh 30.08 in1018.6 mb - 0.00 in0.0 mm 0.00 in0.0 mm
01:00 PM 88.3°F31.3°C 56.4°F13.6°C 34% 3.5 mph N5.6 kmh N 5.8 mph9.3 kmh 30.08 in1018.6 mb - 0.00 in0.0 mm 0.00 in0.0 mm
12:55 PM 88.1°F31.2°C 56.2°F13.4°C 34% 4.6 mph N7.4 kmh N 8.1 mph13.0 kmh 30.07 in1018.3 mb - 0.00 in0.0 mm 0.00 in0.0 mm
12:50 PM 87.8°F31.0°C 56.0°F13.3°C 34% 2.3 mph SE3.7 kmh SE 5.8 mph9.3 kmh 30.08 in1018.6 mb - 0.00 in0.0 mm 0.00 in0.0 mm
12:40 PM 88.5°F31.4°C 57.4°F14.1°C 35% 3.5 mph SE5.6 kmh SE 6.9 mph11.1 kmh 30.08 in1018.6 mb - 0.00 in0.0 mm 0.00 in0.0 mm
12:35 PM 88.7°F31.5°C 56.7°F13.7°C 34% 3.5 mph NE5.6 kmh NE 5.8 mph9.3 kmh 30.08 in1018.6 mb - 0.00 in0.0 mm 0.00 in0.0 mm
12:30 PM 88.5°F31.4°C 57.4°F14.1°C 35% 3.5 mph NW5.6 kmh NW 6.9 mph11.1 kmh 30.08 in1018.6 mb - 0.00 in0.0 mm 0.00 in0.0 mm
12:25 PM 88.8°F31.6°C 57.7°F14.3°C 35% 3.5 mph S5.6 kmh S 5.8 mph9.3 kmh 30.08 in1018.6 mb - 0.00 in0.0 mm 0.00 in0.0 mm
12:20 PM 88.2°F31.2°C 57.1°F13.9°C 35% 2.3 mph E3.7 kmh E 3.5 mph5.6 kmh 30.09 in1019.0 mb - 0.00 in0.0 mm 0.00 in0.0 mm
12:15 PM 88.3°F31.3°C 57.2°F14.0°C 35% 5.8 mph E9.3 kmh E 8.1 mph13.0 kmh 30.08 in1018.6 mb - 0.00 in0.0 mm 0.00 in0.0 mm
12:10 PM 88.3°F31.3°C 56.4°F13.6°C 34% 3.5 mph S5.6 kmh S 5.8 mph9.3 kmh 30.08 in1018.6 mb - 0.00 in0.0 mm 0.00 in0.0 mm
12:00 PM 88.9°F31.6°C 56.1°F13.4°C 33% 1.2 mph NNE1.9 kmh NNE 8.1 mph13.0 kmh 30.09 in1019.0 mb - 0.00 in0.0 mm 0.00 in0.0 mm
11:55 AM 88.9°F31.6°C 56.1°F13.4°C 33% 6.9 mph NNW11.1 kmh NNW 11.5 mph18.5 kmh 30.09 in1019.0 mb - 0.00 in0.0 mm 0.00 in0.0 mm
11:50 AM 88.9°F31.6°C 55.2°F12.9°C 32% 2.3 mph S3.7 kmh S 3.5 mph5.6 kmh 30.09 in1019.0 mb - 0.00 in0.0 mm 0.00 in0.0 mm
11:45 AM 89.2°F31.8°C 55.5°F13.1°C 32% 2.3 mph S3.7 kmh S 5.8 mph9.3 kmh 30.09 in1019.0 mb - 0.00 in0.0 mm 0.00 in0.0 mm
11:40 AM 89.2°F31.8°C 56.4°F13.6°C 33% 3.5 mph 5.6 kmh 5.8 mph9.3 kmh 30.09 in1019.0 mb - 0.00 in0.0 mm 0.00 in0.0 mm
11:35 AM 88.9°F31.6°C 56.1°F13.4°C 33% 2.3 mph SW3.7 kmh SW 8.1 mph13.0 kmh 30.09 in1019.0 mb - 0.00 in0.0 mm 0.00 in0.0 mm
11:30 AM 88.7°F31.5°C 56.7°F13.7°C 34% 5.8 mph SW9.3 kmh SW 11.5 mph18.5 kmh 30.09 in1019.0 mb - 0.00 in0.0 mm 0.00 in0.0 mm
11:25 AM 88.9°F31.6°C 56.1°F13.4°C 33% 3.5 mph N5.6 kmh N 3.5 mph5.6 kmh 30.09 in1019.0 mb - 0.00 in0.0 mm 0.00 in0.0 mm
11:20 AM 88.9°F31.6°C 56.1°F13.4°C 33% 3.5 mph N5.6 kmh N 5.8 mph9.3 kmh 30.09 in1019.0 mb - 0.00 in0.0 mm 0.00 in0.0 mm
11:15 AM 88.7°F31.5°C 56.7°F13.7°C 34% 2.3 mph NNW3.7 kmh NNW 4.6 mph7.4 kmh 30.09 in1019.0 mb - 0.00 in0.0 mm 0.00 in0.0 mm
11:10 AM 87.8°F31.0°C 55.9°F13.3°C 34% 3.5 mph 5.6 kmh 8.1 mph13.0 kmh 30.09 in1019.0 mb - 0.00 in0.0 mm 0.00 in0.0 mm
11:00 AM 87.4°F30.8°C 57.2°F14.0°C 36% 2.3 mph E3.7 kmh E 3.5 mph5.6 kmh 30.09 in1019.0 mb - 0.00 in0.0 mm 0.00 in0.0 mm
10:55 AM 88.1°F31.2°C 57.0°F13.9°C 35% 3.5 mph SE5.6 kmh SE 4.6 mph7.4 kmh 30.10 in1019.3 mb - 0.00 in0.0 mm 0.00 in0.0 mm
10:50 AM 87.8°F31.0°C 56.7°F13.7°C 35% 1.2 mph SE1.9 kmh SE 3.5 mph5.6 kmh 30.10 in1019.3 mb - 0.00 in0.0 mm 0.00 in0.0 mm
10:45 AM 88.2°F31.2°C 56.3°F13.5°C 34% 3.5 mph N5.6 kmh N 6.9 mph11.1 kmh 30.10 in1019.3 mb - 0.00 in0.0 mm 0.00 in0.0 mm
10:40 AM 87.4°F30.8°C 58.0°F14.4°C 37% 1.2 mph NW1.9 kmh NW 3.5 mph5.6 kmh 30.10 in1019.3 mb - 0.00 in0.0 mm 0.00 in0.0 mm
10:35 AM 86.9°F30.5°C 58.2°F14.6°C 38% Calm Calm 1.2 mph1.9 kmh 30.10 in1019.3 mb - 0.00 in0.0 mm 0.00 in0.0 mm
10:30 AM 86.9°F30.5°C 57.5°F14.2°C 37% 4.6 mph WNW7.4 kmh WNW 8.1 mph13.0 kmh 30.10 in1019.3 mb - 0.00 in0.0 mm 0.00 in0.0 mm
10:25 AM 86.9°F30.5°C 58.2°F14.6°C 38% 3.5 mph W5.6 kmh W 5.8 mph9.3 kmh 30.09 in1019.0 mb - 0.00 in0.0 mm 0.00 in0.0 mm
10:20 AM 86.9°F30.5°C 59.0°F15.0°C 39% 5.8 mph NW9.3 kmh NW 9.2 mph14.8 kmh 30.10 in1019.3 mb - 0.00 in0.0 mm 0.00 in0.0 mm
10:15 AM 86.7°F30.4°C 58.1°F14.5°C 38% 2.3 mph NE3.7 kmh NE 3.5 mph5.6 kmh 30.10 in1019.3 mb - 0.00 in0.0 mm 0.00 in0.0 mm
10:10 AM 87.1°F30.6°C 59.8°F15.4°C 40% 3.5 mph E5.6 kmh E 3.5 mph5.6 kmh 30.10 in1019.3 mb - 0.00 in0.0 mm 0.00 in0.0 mm
10:00 AM 86.7°F30.4°C 59.5°F15.3°C 40% 5.8 mph NW9.3 kmh NW 8.1 mph13.0 kmh 30.10 in1019.3 mb - 0.00 in0.0 mm 0.00 in0.0 mm
09:55 AM 86.5°F30.3°C 59.3°F15.2°C 40% 1.2 mph SW1.9 kmh SW 2.3 mph3.7 kmh 30.10 in1019.3 mb - 0.00 in0.0 mm 0.00 in0.0 mm
09:50 AM 86.9°F30.5°C 59.7°F15.4°C 40% 3.5 mph SE5.6 kmh SE 4.6 mph7.4 kmh 30.10 in1019.3 mb - 0.00 in0.0 mm 0.00 in0.0 mm
09:45 AM 86.9°F30.5°C 59.7°F15.4°C 40% 2.3 mph E3.7 kmh E 5.8 mph9.3 kmh 30.09 in1019.0 mb - 0.00 in0.0 mm 0.00 in0.0 mm
09:40 AM 86.7°F30.4°C 60.2°F15.7°C 41% 1.2 mph NW1.9 kmh NW 2.3 mph3.7 kmh 30.10 in1019.3 mb - 0.00 in0.0 mm 0.00 in0.0 mm
09:35 AM 86.4°F30.2°C 60.6°F15.9°C 42% 4.6 mph NW7.4 kmh NW 12.7 mph20.4 kmh 30.10 in1019.3 mb - 0.00 in0.0 mm 0.00 in0.0 mm
09:30 AM 86.0°F30.0°C 59.5°F15.3°C 41% 1.2 mph E1.9 kmh E 3.5 mph5.6 kmh 30.10 in1019.3 mb - 0.00 in0.0 mm 0.00 in0.0 mm
09:25 AM 85.6°F29.8°C 59.2°F15.1°C 41% 4.6 mph N7.4 kmh N 9.2 mph14.8 kmh 30.10 in1019.3 mb - 0.00 in0.0 mm 0.00 in0.0 mm
09:20 AM 85.6°F29.8°C 61.2°F16.2°C 44% 1.2 mph S1.9 kmh S 3.5 mph5.6 kmh 30.10 in1019.3 mb - 0.00 in0.0 mm 0.00 in0.0 mm
09:15 AM 85.3°F29.6°C 60.3°F15.7°C 43% 2.3 mph E3.7 kmh E 5.8 mph9.3 kmh 30.10 in1019.3 mb - 0.00 in0.0 mm 0.00 in0.0 mm
09:10 AM 85.3°F29.6°C 60.3°F15.7°C 43% 6.9 mph NW11.1 kmh NW 9.2 mph14.8 kmh 30.09 in1019.0 mb - 0.00 in0.0 mm 0.00 in0.0 mm
09:00 AM 84.7°F29.3°C 62.3°F16.8°C 47% 2.3 mph NW3.7 kmh NW 3.5 mph5.6 kmh 30.10 in1019.3 mb - 0.00 in0.0 mm 0.00 in0.0 mm
08:55 AM 84.5°F29.2°C 62.7°F17.1°C 48% 2.3 mph SW3.7 kmh SW 6.9 mph11.1 kmh 30.10 in1019.3 mb - 0.00 in0.0 mm 0.00 in0.0 mm
08:50 AM 83.4°F28.6°C 64.5°F18.1°C 53% 1.2 mph 1.9 kmh 1.2 mph1.9 kmh 30.09 in1019.0 mb - 0.00 in0.0 mm 0.00 in0.0 mm
08:45 AM 82.8°F28.2°C 63.9°F17.7°C 53% 2.3 mph NE3.7 kmh NE 3.5 mph5.6 kmh 30.10 in1019.3 mb - 0.00 in0.0 mm 0.00 in0.0 mm
08:40 AM 83.1°F28.4°C 64.7°F18.2°C 54% 5.8 mph NW9.3 kmh NW 5.8 mph9.3 kmh 30.10 in1019.3 mb - 0.00 in0.0 mm 0.00 in0.0 mm
08:35 AM 82.4°F28.0°C 64.1°F17.8°C 54% 1.2 mph SW1.9 kmh SW 3.5 mph5.6 kmh 30.10 in1019.3 mb - 0.00 in0.0 mm 0.00 in0.0 mm
08:30 AM 82.4°F28.0°C 64.6°F18.1°C 55% 1.2 mph SE1.9 kmh SE 2.3 mph3.7 kmh 30.10 in1019.3 mb - 0.00 in0.0 mm 0.00 in0.0 mm
08:25 AM 82.4°F28.0°C 65.6°F18.7°C 57% 1.2 mph 1.9 kmh 3.5 mph5.6 kmh 30.10 in1019.3 mb - 0.00 in0.0 mm 0.00 in0.0 mm
08:20 AM 80.8°F27.1°C 65.1°F18.4°C 59% 1.2 mph N1.9 kmh N 4.6 mph7.4 kmh 30.10 in1019.3 mb - 0.00 in0.0 mm 0.00 in0.0 mm
08:15 AM 80.8°F27.1°C 65.1°F18.4°C 59% 1.2 mph NW1.9 kmh NW 3.5 mph5.6 kmh 30.10 in1019.3 mb - 0.00 in0.0 mm 0.00 in0.0 mm
08:10 AM 80.8°F27.1°C 65.1°F18.4°C 59% 1.2 mph NW1.9 kmh NW 3.5 mph5.6 kmh 30.10 in1019.3 mb - 0.00 in0.0 mm 0.00 in0.0 mm
08:00 AM 79.9°F26.6°C 67.0°F19.4°C 65% 1.2 mph N1.9 kmh N 1.2 mph1.9 kmh 30.10 in1019.3 mb - 0.00 in0.0 mm 0.00 in0.0 mm
07:55 AM 79.3°F26.3°C 66.5°F19.2°C 65% 1.2 mph NW1.9 kmh NW 3.5 mph5.6 kmh 30.09 in1019.0 mb - 0.00 in0.0 mm 0.00 in0.0 mm
07:50 AM 78.9°F26.1°C 66.6°F19.2°C 66% Calm Calm 3.5 mph5.6 kmh 30.10 in1019.3 mb - 0.00 in0.0 mm 0.00 in0.0 mm
07:45 AM 78.2°F25.7°C 66.4°F19.1°C 67% Calm Calm 3.5 mph5.6 kmh 30.10 in1019.3 mb - 0.00 in0.0 mm 0.00 in0.0 mm
07:40 AM 77.7°F25.4°C 66.7°F19.3°C 69% 2.3 mph WNW3.7 kmh WNW 4.6 mph7.4 kmh 30.10 in1019.3 mb - 0.00 in0.0 mm 0.00 in0.0 mm
07:35 AM 77.2°F25.1°C 66.6°F19.2°C 70% 2.3 mph N3.7 kmh N 3.5 mph5.6 kmh 30.10 in1019.3 mb - 0.00 in0.0 mm 0.00 in0.0 mm
07:30 AM 76.6°F24.8°C 66.5°F19.2°C 71% 1.2 mph SE1.9 kmh SE 2.3 mph3.7 kmh 30.09 in1019.0 mb - 0.00 in0.0 mm 0.00 in0.0 mm
07:25 AM 76.4°F24.7°C 66.3°F19.1°C 71% 2.3 mph NW3.7 kmh NW 3.5 mph5.6 kmh 30.10 in1019.3 mb - 0.00 in0.0 mm 0.00 in0.0 mm
07:20 AM 76.1°F24.5°C 65.6°F18.7°C 70% 1.2 mph NW1.9 kmh NW 3.5 mph5.6 kmh 30.09 in1019.0 mb - 0.00 in0.0 mm 0.00 in0.0 mm
07:15 AM 75.5°F24.2°C 65.1°F18.4°C 70% 2.3 mph N3.7 kmh N 3.5 mph5.6 kmh 30.09 in1019.0 mb - 0.00 in0.0 mm 0.00 in0.0 mm
07:10 AM 74.8°F23.8°C 64.8°F18.2°C 71% 1.2 mph S1.9 kmh S 2.3 mph3.7 kmh 30.10 in1019.3 mb - 0.00 in0.0 mm 0.00 in0.0 mm
07:00 AM 74.1°F23.4°C 64.1°F17.8°C 71% Calm Calm 1.2 mph1.9 kmh 30.09 in1019.0 mb - 0.00 in0.0 mm 0.00 in0.0 mm
06:55 AM 73.9°F23.3°C 63.1°F17.3°C 69% 1.2 mph WSW1.9 kmh WSW 3.5 mph5.6 kmh 30.09 in1019.0 mb - 0.00 in0.0 mm 0.00 in0.0 mm
06:50 AM 73.2°F22.9°C 62.4°F16.9°C 69% 1.2 mph SW1.9 kmh SW 2.3 mph3.7 kmh 30.09 in1019.0 mb - 0.00 in0.0 mm 0.00 in0.0 mm
06:45 AM 72.9°F22.7°C 61.7°F16.5°C 68% 1.2 mph S1.9 kmh S 2.3 mph3.7 kmh 30.09 in1019.0 mb - 0.00 in0.0 mm 0.00 in0.0 mm
06:40 AM 72.3°F22.4°C 61.2°F16.2°C 68% 1.2 mph SW1.9 kmh SW 3.5 mph5.6 kmh 30.09 in1019.0 mb - 0.00 in0.0 mm 0.00 in0.0 mm
06:35 AM 72.1°F22.3°C 61.4°F16.3°C 69% 1.2 mph NW1.9 kmh NW 3.5 mph5.6 kmh 30.09 in1019.0 mb - 0.00 in0.0 mm 0.00 in0.0 mm
06:30 AM 71.8°F22.1°C 61.1°F16.2°C 69% Calm Calm 1.2 mph1.9 kmh 30.09 in1019.0 mb - 0.00 in0.0 mm 0.00 in0.0 mm
06:25 AM 71.2°F21.8°C 61.0°F16.1°C 70% Calm Calm 1.2 mph1.9 kmh 30.09 in1019.0 mb - 0.00 in0.0 mm 0.00 in0.0 mm
06:20 AM 70.9°F21.6°C 60.6°F15.9°C 70% Calm Calm 1.2 mph1.9 kmh 30.09 in1019.0 mb - 0.00 in0.0 mm 0.00 in0.0 mm
06:15 AM 70.5°F21.4°C 60.3°F15.7°C 70% 1.2 mph NW1.9 kmh NW 2.3 mph3.7 kmh 30.09 in1019.0 mb - 0.00 in0.0 mm 0.00 in0.0 mm
06:10 AM 70.1°F21.2°C 60.3°F15.7°C 71% 1.2 mph NW1.9 kmh NW 2.3 mph3.7 kmh 30.09 in1019.0 mb - 0.00 in0.0 mm 0.00 in0.0 mm
06:00 AM 69.4°F20.8°C 60.4°F15.8°C 73% 2.3 mph NW3.7 kmh NW 3.5 mph5.6 kmh 30.09 in1019.0 mb - 0.00 in0.0 mm 0.00 in0.0 mm
05:55 AM 69.3°F20.7°C 60.2°F15.7°C 73% 1.2 mph NW1.9 kmh NW 2.3 mph3.7 kmh 30.09 in1019.0 mb - 0.00 in0.0 mm 0.00 in0.0 mm
05:50 AM 69.1°F20.6°C 60.4°F15.8°C 74% 1.2 mph SW1.9 kmh SW 2.3 mph3.7 kmh 30.09 in1019.0 mb - 0.00 in0.0 mm 0.00 in0.0 mm
05:45 AM 69.1°F20.6°C 60.4°F15.8°C 74% 1.2 mph NNW1.9 kmh NNW 3.5 mph5.6 kmh 30.09 in1019.0 mb - 0.00 in0.0 mm 0.00 in0.0 mm
05:40 AM 69.1°F20.6°C 60.4°F15.8°C 74% 1.2 mph NW1.9 kmh NW 3.5 mph5.6 kmh 30.09 in1019.0 mb - 0.00 in0.0 mm 0.00 in0.0 mm
05:35 AM 68.7°F20.4°C 59.7°F15.4°C 73% Calm Calm -- 30.08 in1018.6 mb - 0.00 in0.0 mm 0.00 in0.0 mm
05:30 AM 68.7°F20.4°C 59.7°F15.4°C 73% Calm Calm -- 30.08 in1018.6 mb - 0.00 in0.0 mm 0.00 in0.0 mm
05:25 AM 68.4°F20.2°C 59.7°F15.4°C 74% Calm Calm -- 30.08 in1018.6 mb - 0.00 in0.0 mm 0.00 in0.0 mm
05:20 AM 68.0°F20.0°C 59.4°F15.2°C 74% Calm Calm -- 30.09 in1019.0 mb - 0.00 in0.0 mm 0.00 in0.0 mm
05:15 AM 67.6°F19.8°C 59.4°F15.2°C 75% Calm Calm 1.2 mph1.9 kmh 30.09 in1019.0 mb - 0.00 in0.0 mm 0.00 in0.0 mm
05:10 AM 67.5°F19.7°C 59.3°F15.2°C 75% Calm Calm -- 30.09 in1019.0 mb - 0.00 in0.0 mm 0.00 in0.0 mm
05:00 AM 67.5°F19.7°C 59.3°F15.2°C 75% 1.2 mph SE1.9 kmh SE 3.5 mph5.6 kmh 30.08 in1018.6 mb - 0.00 in0.0 mm 0.00 in0.0 mm
04:55 AM 67.5°F19.7°C 59.3°F15.2°C 75% Calm Calm 1.2 mph1.9 kmh 30.08 in1018.6 mb - 0.00 in0.0 mm 0.00 in0.0 mm
04:50 AM 67.5°F19.7°C 58.9°F14.9°C 74% Calm Calm 1.2 mph1.9 kmh 30.08 in1018.6 mb - 0.00 in0.0 mm 0.00 in0.0 mm
04:45 AM 67.5°F19.7°C 58.9°F14.9°C 74% 1.2 mph E1.9 kmh E 1.2 mph1.9 kmh 30.08 in1018.6 mb - 0.00 in0.0 mm 0.00 in0.0 mm
04:40 AM 67.5°F19.7°C 58.9°F14.9°C 74% Calm Calm 1.2 mph1.9 kmh 30.08 in1018.6 mb - 0.00 in0.0 mm 0.00 in0.0 mm
04:35 AM 67.3°F19.6°C 58.7°F14.8°C 74% 1.2 mph S1.9 kmh S 1.2 mph1.9 kmh 30.07 in1018.3 mb - 0.00 in0.0 mm 0.00 in0.0 mm
04:30 AM 67.3°F19.6°C 58.7°F14.8°C 74% Calm Calm 1.2 mph1.9 kmh 30.07 in1018.3 mb - 0.00 in0.0 mm 0.00 in0.0 mm
04:25 AM 67.5°F19.7°C 58.9°F14.9°C 74% Calm Calm 1.2 mph1.9 kmh 30.08 in1018.6 mb - 0.00 in0.0 mm 0.00 in0.0 mm
04:20 AM 67.7°F19.8°C 58.7°F14.8°C 73% 1.2 mph SE1.9 kmh SE 2.3 mph3.7 kmh 30.07 in1018.3 mb - 0.00 in0.0 mm 0.00 in0.0 mm
04:15 AM 68.2°F20.1°C 58.4°F14.7°C 71% 2.3 mph SE3.7 kmh SE 3.5 mph5.6 kmh 30.08 in1018.6 mb - 0.00 in0.0 mm 0.00 in0.0 mm
04:10 AM 68.4°F20.2°C 58.6°F14.8°C 71% 1.2 mph SE1.9 kmh SE 2.3 mph3.7 kmh 30.08 in1018.6 mb - 0.00 in0.0 mm 0.00 in0.0 mm
04:00 AM 68.5°F20.3°C 58.8°F14.9°C 71% Calm Calm 1.2 mph1.9 kmh 30.08 in1018.6 mb - 0.00 in0.0 mm 0.00 in0.0 mm
03:55 AM 68.9°F20.5°C 58.7°F14.8°C 70% 1.2 mph SE1.9 kmh SE 2.3 mph3.7 kmh 30.07 in1018.3 mb - 0.00 in0.0 mm 0.00 in0.0 mm
03:50 AM 69.5°F20.8°C 58.8°F14.9°C 69% 1.2 mph SE1.9 kmh SE 2.3 mph3.7 kmh 30.07 in1018.3 mb - 0.00 in0.0 mm 0.00 in0.0 mm
03:45 AM 69.8°F21.0°C 57.1°F13.9°C 64% 1.2 mph S1.9 kmh S 1.2 mph1.9 kmh 30.06 in1017.9 mb - 0.00 in0.0 mm 0.00 in0.0 mm
03:40 AM 69.8°F21.0°C 57.1°F13.9°C 64% Calm Calm -- 30.06 in1017.9 mb - 0.00 in0.0 mm 0.00 in0.0 mm
03:35 AM 69.8°F21.0°C 57.1°F13.9°C 64% Calm Calm -- 30.07 in1018.3 mb - 0.00 in0.0 mm 0.00 in0.0 mm
03:30 AM 70.0°F21.1°C 57.2°F14.0°C 64% Calm Calm -- 30.07 in1018.3 mb - 0.00 in0.0 mm 0.00 in0.0 mm
03:25 AM 70.2°F21.2°C 57.0°F13.9°C 63% Calm Calm -- 30.06 in1017.9 mb - 0.00 in0.0 mm 0.00 in0.0 mm
03:20 AM 70.3°F21.3°C 57.1°F13.9°C 63% Calm Calm 1.2 mph1.9 kmh 30.07 in1018.3 mb - 0.00 in0.0 mm 0.00 in0.0 mm
03:15 AM 70.3°F21.3°C 57.1°F13.9°C 63% Calm Calm -- 30.06 in1017.9 mb - 0.00 in0.0 mm 0.00 in0.0 mm
03:10 AM 70.3°F21.3°C 57.6°F14.2°C 64% 1.2 mph NW1.9 kmh NW 2.3 mph3.7 kmh 30.07 in1018.3 mb - 0.00 in0.0 mm 0.00 in0.0 mm
03:00 AM 70.0°F21.1°C 57.7°F14.3°C 65% Calm Calm 1.2 mph1.9 kmh 30.07 in1018.3 mb - 0.00 in0.0 mm 0.00 in0.0 mm
02:55 AM 70.2°F21.2°C 57.8°F14.3°C 65% 1.2 mph NW1.9 kmh NW 1.2 mph1.9 kmh 30.07 in1018.3 mb - 0.00 in0.0 mm 0.00 in0.0 mm
02:50 AM 70.3°F21.3°C 58.4°F14.7°C 66% Calm Calm 2.3 mph3.7 kmh 30.07 in1018.3 mb - 0.00 in0.0 mm 0.00 in0.0 mm
02:45 AM 70.3°F21.3°C 58.0°F14.4°C 65% 1.2 mph NW1.9 kmh NW 2.3 mph3.7 kmh 30.06 in1017.9 mb - 0.00 in0.0 mm 0.00 in0.0 mm
02:40 AM 70.3°F21.3°C 58.4°F14.7°C 66% Calm Calm 1.2 mph1.9 kmh 30.06 in1017.9 mb - 0.00 in0.0 mm 0.00 in0.0 mm
02:35 AM 70.3°F21.3°C 58.4°F14.7°C 66% 1.2 mph NW1.9 kmh NW 3.5 mph5.6 kmh 30.06 in1017.9 mb - 0.00 in0.0 mm 0.00 in0.0 mm
02:30 AM 70.3°F21.3°C 58.4°F14.7°C 66% Calm Calm 2.3 mph3.7 kmh 30.07 in1018.3 mb - 0.00 in0.0 mm 0.00 in0.0 mm
02:25 AM 70.3°F21.3°C 58.0°F14.4°C 65% Calm Calm 1.2 mph1.9 kmh 30.07 in1018.3 mb - 0.00 in0.0 mm 0.00 in0.0 mm
02:20 AM 70.3°F21.3°C 58.4°F14.7°C 66% 1.2 mph W1.9 kmh W 1.2 mph1.9 kmh 30.07 in1018.3 mb - 0.00 in0.0 mm 0.00 in0.0 mm
02:15 AM 70.2°F21.2°C 57.8°F14.3°C 65% Calm Calm -- 30.06 in1017.9 mb - 0.00 in0.0 mm 0.00 in0.0 mm
02:10 AM 70.4°F21.3°C 58.0°F14.4°C 65% Calm Calm 1.2 mph1.9 kmh 30.07 in1018.3 mb - 0.00 in0.0 mm 0.00 in0.0 mm
02:00 AM 70.9°F21.6°C 58.1°F14.5°C 64% 1.2 mph S1.9 kmh S 2.3 mph3.7 kmh 30.06 in1017.9 mb - 0.00 in0.0 mm 0.00 in0.0 mm
01:55 AM 71.4°F21.9°C 57.7°F14.3°C 62% 1.2 mph W1.9 kmh W 3.5 mph5.6 kmh 30.06 in1017.9 mb - 0.00 in0.0 mm 0.00 in0.0 mm
01:50 AM 71.8°F22.1°C 57.1°F13.9°C 60% 1.2 mph NW1.9 kmh NW 2.3 mph3.7 kmh 30.06 in1017.9 mb - 0.00 in0.0 mm 0.00 in0.0 mm
01:45 AM 71.8°F22.1°C 57.1°F13.9°C 60% Calm Calm 1.2 mph1.9 kmh 30.07 in1018.3 mb - 0.00 in0.0 mm 0.00 in0.0 mm
01:40 AM 72.0°F22.2°C 57.3°F14.1°C 60% Calm Calm 1.2 mph1.9 kmh 30.07 in1018.3 mb - 0.00 in0.0 mm 0.00 in0.0 mm
01:35 AM 72.0°F22.2°C 58.2°F14.6°C 62% Calm Calm -- 30.07 in1018.3 mb - 0.00 in0.0 mm 0.00 in0.0 mm
01:30 AM 72.1°F22.3°C 58.4°F14.7°C 62% 1.2 mph SW1.9 kmh SW 1.2 mph1.9 kmh 30.07 in1018.3 mb - 0.00 in0.0 mm 0.00 in0.0 mm
01:25 AM 72.3°F22.4°C 58.1°F14.5°C 61% Calm Calm -- 30.07 in1018.3 mb - 0.00 in0.0 mm 0.00 in0.0 mm
01:20 AM 72.5°F22.5°C 58.3°F14.6°C 61% Calm Calm -- 30.07 in1018.3 mb - 0.00 in0.0 mm 0.00 in0.0 mm
01:15 AM 72.7°F22.6°C 58.4°F14.7°C 61% Calm Calm 1.2 mph1.9 kmh 30.07 in1018.3 mb - 0.00 in0.0 mm 0.00 in0.0 mm
01:10 AM 72.1°F22.3°C 57.9°F14.4°C 61% Calm Calm 1.2 mph1.9 kmh 30.07 in1018.3 mb - 0.00 in0.0 mm 0.00 in0.0 mm
01:00 AM 72.3°F22.4°C 57.2°F14.0°C 59% Calm Calm -- 30.07 in1018.3 mb - 0.00 in0.0 mm 0.00 in0.0 mm
12:55 AM 72.7°F22.6°C 58.0°F14.4°C 60% Calm Calm -- 30.07 in1018.3 mb - 0.00 in0.0 mm 0.00 in0.0 mm
12:50 AM 72.9°F22.7°C 58.2°F14.6°C 60% Calm Calm -- 30.07 in1018.3 mb - 0.00 in0.0 mm 0.00 in0.0 mm
12:45 AM 72.7°F22.6°C 58.5°F14.7°C 61% Calm Calm -- 30.07 in1018.3 mb - 0.00 in0.0 mm 0.00 in0.0 mm
12:40 AM 72.5°F22.5°C 58.3°F14.6°C 61% Calm Calm -- 30.07 in1018.3 mb - 0.00 in0.0 mm 0.00 in0.0 mm
12:35 AM 72.3°F22.4°C 57.7°F14.3°C 60% Calm Calm -- 30.08 in1018.6 mb - 0.00 in0.0 mm 0.00 in0.0 mm
12:30 AM 72.7°F22.6°C 58.5°F14.7°C 61% Calm Calm -- 30.08 in1018.6 mb - 0.00 in0.0 mm 0.00 in0.0 mm
12:25 AM 72.9°F22.7°C 58.6°F14.8°C 61% Calm Calm -- 30.08 in1018.6 mb - 0.00 in0.0 mm 0.00 in0.0 mm
12:20 AM 73.0°F22.8°C 58.8°F14.9°C 61% 1.2 mph ENE1.9 kmh ENE 1.2 mph1.9 kmh 30.08 in1018.6 mb - 0.00 in0.0 mm 0.00 in0.0 mm
12:15 AM 73.0°F22.8°C 58.3°F14.6°C 60% Calm Calm -- 30.08 in1018.6 mb - 0.00 in0.0 mm 0.00 in0.0 mm
12:10 AM 73.0°F22.8°C 57.9°F14.4°C 59% Calm Calm -- 30.07 in1018.3 mb - 0.00 in0.0 mm 0.00 in0.0 mm
12:00 AM 73.0°F22.8°C 58.3°F14.6°C 60% Calm Calm 1.2 mph1.9 kmh 30.08 in1018.6 mb - 0.00 in0.0 mm 0.00 in0.0 mm